createdAt,value
2019-01-15T00:00:15.588Z,3.10
2019-01-15T00:02:44.140Z,3.10
2019-01-15T00:05:13.151Z,3.10
2019-01-15T00:07:41.704Z,3.00
2019-01-15T00:10:10.772Z,3.00
2019-01-15T00:12:39.680Z,3.00
2019-01-15T00:15:10.508Z,3.00
2019-01-15T00:17:38.996Z,3.00
2019-01-15T00:20:10.330Z,3.00
2019-01-15T00:22:38.911Z,3.00
2019-01-15T00:25:08.110Z,3.00
2019-01-15T00:27:36.637Z,3.00
2019-01-15T00:30:08.400Z,3.00
2019-01-15T00:32:36.928Z,3.00
2019-01-15T00:35:07.219Z,3.00
2019-01-15T00:37:35.668Z,3.00
2019-01-15T00:40:07.234Z,3.00
2019-01-15T00:42:35.833Z,3.00
2019-01-15T00:45:06.522Z,3.00
2019-01-15T00:47:35.421Z,3.00
2019-01-15T00:50:06.816Z,3.00
2019-01-15T00:52:35.340Z,3.00
2019-01-15T00:55:04.959Z,3.00
2019-01-15T00:57:33.417Z,3.00
2019-01-15T01:00:01.978Z,3.00
2019-01-15T01:02:30.513Z,3.10
2019-01-15T01:04:59.064Z,3.00
2019-01-15T01:07:27.736Z,3.00
2019-01-15T01:09:56.288Z,3.10
2019-01-15T01:12:24.812Z,3.10
2019-01-15T01:14:53.299Z,3.10
2019-01-15T01:17:21.829Z,3.10
2019-01-15T01:19:50.388Z,3.10
2019-01-15T01:22:18.912Z,3.10
2019-01-15T01:24:47.387Z,3.10
2019-01-15T01:27:15.981Z,3.00
2019-01-15T01:29:44.539Z,3.00
2019-01-15T01:32:12.992Z,3.00
2019-01-15T01:34:41.546Z,3.00
2019-01-15T01:37:10.003Z,3.00
2019-01-15T01:39:38.624Z,3.00
2019-01-15T01:42:07.157Z,3.00
2019-01-15T01:44:35.712Z,2.90
2019-01-15T01:47:04.388Z,3.00
2019-01-15T01:49:33.242Z,3.00
2019-01-15T01:52:01.836Z,2.90
2019-01-15T01:54:30.321Z,3.00
2019-01-15T01:56:59.220Z,3.00
2019-01-15T01:59:27.705Z,3.00
2019-01-15T02:01:56.233Z,3.00
2019-01-15T02:04:24.787Z,3.00
2019-01-15T02:06:53.312Z,3.00
2019-01-15T02:09:21.771Z,2.90
2019-01-15T02:11:50.632Z,3.00
2019-01-15T02:14:19.223Z,3.00
2019-01-15T02:16:47.976Z,3.00
2019-01-15T02:19:16.504Z,2.90
2019-01-15T02:21:45.339Z,2.90
2019-01-15T02:24:14.132Z,2.90
2019-01-15T02:26:42.850Z,2.90
2019-01-15T02:29:11.303Z,2.90
2019-01-15T02:31:39.847Z,2.90
2019-01-15T02:34:08.291Z,2.90
2019-01-15T02:36:36.767Z,2.90
2019-01-15T02:39:07.719Z,2.90
2019-01-15T02:41:36.568Z,2.90
2019-01-15T02:44:05.187Z,3.00
2019-01-15T02:46:33.672Z,3.00
2019-01-15T02:49:02.532Z,3.00
2019-01-15T02:51:31.152Z,3.00
2019-01-15T02:53:59.611Z,3.00
2019-01-15T02:56:28.152Z,2.90
2019-01-15T02:58:56.599Z,2.90
2019-01-15T03:01:25.075Z,2.90
2019-01-15T03:03:53.527Z,2.90
2019-01-15T03:06:22.312Z,3.00
2019-01-15T03:08:50.836Z,3.00
2019-01-15T03:11:19.452Z,2.90
2019-01-15T03:13:47.981Z,2.90
2019-01-15T03:16:16.439Z,2.90
2019-01-15T03:18:44.993Z,2.90
2019-01-15T03:21:13.516Z,2.90
2019-01-15T03:23:42.001Z,2.90
2019-01-15T03:26:10.524Z,2.90
2019-01-15T03:28:38.976Z,2.90
2019-01-15T03:31:07.528Z,2.90
2019-01-15T03:33:36.057Z,2.90
2019-01-15T03:36:04.947Z,2.90
2019-01-15T03:38:33.796Z,2.90
2019-01-15T03:41:02.339Z,2.90
2019-01-15T03:43:30.787Z,2.90
2019-01-15T03:46:04.241Z,2.90
2019-01-15T03:48:29.435Z,2.90
2019-01-15T03:50:57.889Z,2.90
2019-01-15T03:53:26.371Z,2.90
2019-01-15T03:55:54.900Z,2.80
2019-01-15T03:58:23.448Z,2.80
2019-01-15T04:00:52.177Z,2.80
2019-01-15T04:03:20.708Z,2.80
2019-01-15T04:05:49.336Z,2.80
2019-01-15T04:08:17.868Z,2.80
2019-01-15T04:10:46.488Z,2.80
2019-01-15T04:13:14.949Z,2.80
2019-01-15T04:15:43.509Z,2.80
2019-01-15T04:18:12.118Z,2.80
2019-01-15T04:20:40.718Z,2.80
2019-01-15T04:23:09.277Z,2.80
2019-01-15T04:25:37.800Z,2.80
2019-01-15T04:28:06.504Z,2.80
2019-01-15T04:30:35.037Z,2.80
2019-01-15T04:33:03.669Z,2.80
2019-01-15T04:35:32.557Z,2.80
2019-01-15T04:38:01.084Z,2.80
2019-01-15T04:40:29.646Z,2.80
2019-01-15T04:42:58.237Z,2.80
2019-01-15T04:45:26.836Z,2.80
2019-01-15T04:47:55.369Z,2.80
2019-01-15T04:50:24.064Z,2.80
2019-01-15T04:52:55.214Z,2.80
2019-01-15T04:55:24.128Z,2.80
2019-01-15T04:57:52.757Z,2.90
2019-01-15T05:00:22.429Z,2.90
2019-01-15T05:02:51.102Z,2.90
2019-01-15T05:05:19.722Z,2.80
2019-01-15T05:07:48.602Z,2.90
2019-01-15T05:10:17.498Z,2.90
2019-01-15T05:12:46.098Z,2.80
2019-01-15T05:15:18.357Z,2.80
2019-01-15T05:17:46.978Z,2.90
2019-01-15T05:20:17.828Z,2.80
2019-01-15T05:22:46.507Z,2.80
2019-01-15T05:25:20.600Z,2.80
2019-01-15T05:27:49.504Z,2.80
2019-01-15T05:30:26.325Z,2.80
2019-01-15T05:32:54.925Z,2.80
2019-01-15T05:35:23.697Z,2.80
2019-01-15T05:37:52.253Z,2.80
2019-01-15T05:40:20.949Z,2.80
2019-01-15T05:42:49.549Z,2.80
2019-01-15T05:45:22.253Z,2.80
2019-01-15T05:47:52.310Z,2.90
2019-01-15T05:50:22.647Z,2.90
2019-01-15T05:52:51.177Z,2.90
2019-01-15T05:55:19.709Z,2.90
2019-01-15T05:57:48.268Z,2.90
2019-01-15T06:00:17.740Z,2.90
2019-01-15T06:02:46.299Z,2.90
2019-01-15T06:05:15.375Z,2.90
2019-01-15T06:07:44.001Z,2.80
2019-01-15T06:10:14.468Z,2.90
2019-01-15T06:12:43.370Z,2.90
2019-01-15T06:15:14.441Z,2.90
2019-01-15T06:17:43.401Z,2.90
2019-01-15T06:20:15.263Z,2.90
2019-01-15T06:22:44.261Z,2.90
2019-01-15T06:25:13.765Z,2.90
2019-01-15T06:27:42.433Z,2.90
2019-01-15T06:30:21.795Z,2.90
2019-01-15T06:32:50.497Z,2.90
2019-01-15T06:35:19.124Z,2.90
2019-01-15T06:37:47.821Z,2.90
2019-01-15T06:40:18.619Z,2.90
2019-01-15T06:42:47.217Z,2.90
2019-01-15T06:45:18.885Z,2.90
2019-01-15T06:47:47.495Z,2.90
2019-01-15T06:50:16.162Z,2.90
2019-01-15T06:52:44.860Z,2.90
2019-01-15T06:55:16.405Z,2.90
2019-01-15T06:57:45.040Z,2.90
2019-01-15T07:00:16.902Z,2.90
2019-01-15T07:02:45.599Z,2.90
2019-01-15T07:05:15.437Z,2.90
2019-01-15T07:07:44.036Z,3.00
2019-01-15T07:10:18.329Z,3.00
2019-01-15T07:12:46.789Z,3.00
2019-01-15T07:15:15.485Z,3.00
2019-01-15T07:17:44.388Z,3.00
2019-01-15T07:20:15.325Z,3.00
2019-01-15T07:22:43.787Z,3.00
2019-01-15T07:25:17.941Z,3.10
2019-01-15T07:27:46.539Z,3.10
2019-01-15T07:30:18.104Z,3.10
2019-01-15T07:32:46.707Z,3.10
2019-01-15T07:35:15.304Z,3.10
2019-01-15T07:37:44.193Z,3.10
2019-01-15T07:40:14.085Z,3.10
2019-01-15T07:42:42.887Z,3.10
2019-01-15T07:45:13.491Z,3.20
2019-01-15T07:47:42.149Z,3.20
2019-01-15T07:50:14.381Z,3.20
2019-01-15T07:52:43.349Z,3.20
2019-01-15T07:55:14.553Z,3.20
2019-01-15T07:57:43.508Z,3.20
2019-01-15T08:00:26.118Z,3.30
2019-01-15T08:02:55.122Z,3.30
2019-01-15T08:05:26.069Z,3.30
2019-01-15T08:07:54.869Z,3.30
2019-01-15T08:10:23.406Z,3.40
2019-01-15T08:12:52.381Z,3.40
2019-01-15T08:15:23.928Z,3.40
2019-01-15T08:17:52.968Z,3.40
2019-01-15T08:20:21.565Z,3.50
2019-01-15T08:22:50.165Z,3.50
2019-01-15T08:25:18.889Z,3.50
2019-01-15T08:27:47.379Z,3.60
2019-01-15T08:30:27.781Z,3.60
2019-01-15T08:32:56.403Z,3.60
2019-01-15T08:35:25.005Z,3.60
2019-01-15T08:37:54.025Z,3.70
2019-01-15T08:40:22.485Z,3.70
2019-01-15T08:42:51.167Z,3.70
2019-01-15T08:45:19.929Z,3.80
2019-01-15T08:47:50.381Z,3.80
2019-01-15T08:50:27.187Z,3.80
2019-01-15T08:52:55.845Z,3.80
2019-01-15T08:55:24.403Z,3.80
2019-01-15T08:57:52.936Z,3.80
2019-01-15T09:00:21.706Z,3.90
2019-01-15T09:02:50.277Z,4.00
2019-01-15T09:05:18.805Z,4.00
2019-01-15T09:07:47.676Z,4.00
2019-01-15T09:10:17.468Z,4.00
2019-01-15T09:12:46.442Z,4.10
2019-01-15T09:15:17.236Z,4.10
2019-01-15T09:17:45.780Z,4.10
2019-01-15T09:20:16.485Z,4.20
2019-01-15T09:22:45.155Z,4.10
2019-01-15T09:25:13.906Z,4.10
2019-01-15T09:27:42.508Z,4.10
2019-01-15T09:30:16.264Z,4.10
2019-01-15T09:32:45.095Z,4.20
2019-01-15T09:35:13.765Z,4.40
2019-01-15T09:37:43.132Z,4.60
2019-01-15T09:40:14.671Z,4.70
2019-01-15T09:42:43.516Z,4.80
2019-01-15T09:45:14.772Z,5.00
2019-01-15T09:47:44.965Z,5.10
2019-01-15T09:50:13.693Z,5.10
2019-01-15T09:52:42.298Z,5.00
2019-01-15T09:55:11.097Z,5.10
2019-01-15T09:57:39.774Z,5.20
2019-01-15T10:00:11.417Z,5.30
2019-01-15T10:02:39.954Z,5.40
2019-01-15T10:05:08.662Z,5.40
2019-01-15T10:07:37.252Z,5.50
2019-01-15T10:10:08.828Z,5.70
2019-01-15T10:12:37.457Z,6.00
2019-01-15T10:15:08.992Z,6.10
2019-01-15T10:17:37.551Z,6.20
2019-01-15T10:20:09.096Z,6.00
2019-01-15T10:22:37.729Z,6.00
2019-01-15T10:25:09.225Z,6.10
2019-01-15T10:27:38.393Z,6.00
2019-01-15T10:30:10.397Z,6.10
2019-01-15T10:32:44.858Z,6.20
2019-01-15T10:35:22.065Z,6.50
2019-01-15T10:37:50.521Z,7.30
2019-01-15T10:40:19.009Z,7.10
2019-01-15T10:42:47.839Z,7.00
2019-01-15T10:45:16.826Z,7.10
2019-01-15T10:47:45.785Z,7.20
2019-01-15T10:50:15.281Z,8.00
2019-01-15T10:52:44.104Z,8.00
2019-01-15T10:55:12.570Z,7.70
2019-01-15T10:57:41.230Z,7.40
2019-01-15T11:00:13.078Z,6.90
2019-01-15T11:02:41.620Z,6.60
2019-01-15T11:05:12.073Z,6.50
2019-01-15T11:07:40.629Z,6.30
2019-01-15T11:10:16.676Z,6.30
2019-01-15T11:12:45.185Z,6.20
2019-01-15T11:15:14.132Z,6.20
2019-01-15T11:17:42.667Z,6.00
2019-01-15T11:20:14.205Z,5.90
2019-01-15T11:22:42.831Z,5.80
2019-01-15T11:25:11.709Z,5.80
2019-01-15T11:27:40.265Z,5.70
2019-01-15T11:30:11.960Z,5.60
2019-01-15T11:32:40.457Z,5.60
2019-01-15T11:35:13.377Z,5.50
2019-01-15T11:37:42.269Z,5.50
2019-01-15T11:40:18.324Z,5.40
2019-01-15T11:42:46.881Z,5.40
2019-01-15T11:45:17.848Z,5.40
2019-01-15T11:47:46.949Z,5.40
2019-01-15T11:50:22.610Z,5.40
2019-01-15T11:52:51.269Z,5.30
2019-01-15T11:55:21.300Z,5.40
2019-01-15T11:57:50.284Z,5.40
2019-01-15T12:00:26.117Z,5.40
2019-01-15T12:02:59.352Z,5.40
2019-01-15T12:05:46.145Z,5.40
2019-01-15T12:08:19.338Z,5.40
2019-01-15T12:10:49.545Z,5.40
2019-01-15T12:13:32.065Z,5.40
2019-01-15T12:16:08.873Z,5.50
2019-01-15T12:18:39.044Z,5.50
2019-01-15T12:21:12.313Z,5.60
2019-01-15T12:23:48.776Z,5.60
2019-01-15T12:26:37.191Z,5.80
2019-01-15T12:29:19.565Z,5.80
2019-01-15T12:31:49.765Z,5.80
2019-01-15T12:34:20.657Z,5.80
2019-01-15T12:36:53.936Z,5.80
2019-01-15T12:39:33.075Z,5.70
2019-01-15T12:42:03.277Z,5.80
2019-01-15T12:44:48.809Z,5.90
2019-01-15T12:47:21.769Z,6.00
2019-01-15T12:49:54.928Z,6.00
2019-01-15T12:52:25.418Z,6.00
2019-01-15T12:55:01.470Z,6.00
2019-01-15T12:57:31.670Z,5.90
2019-01-15T13:00:14.137Z,5.80
2019-01-15T13:02:44.337Z,5.80
2019-01-15T13:05:32.759Z,5.70
2019-01-15T13:08:20.929Z,5.70
2019-01-15T13:10:56.965Z,5.70
2019-01-15T13:13:43.144Z,5.70
2019-01-15T13:16:19.113Z,5.70
2019-01-15T13:18:49.313Z,5.80
2019-01-15T13:21:22.374Z,5.80
2019-01-15T13:23:52.569Z,5.80
2019-01-15T13:26:23.061Z,5.90
2019-01-15T13:28:59.448Z,5.80
2019-01-15T13:31:41.576Z,5.80
2019-01-15T13:34:17.765Z,5.70
2019-01-15T13:36:53.757Z,5.70
2019-01-15T13:39:29.996Z,5.70
2019-01-15T13:42:12.628Z,5.70
2019-01-15T13:44:42.828Z,5.70
2019-01-15T13:47:19.110Z,5.70
2019-01-15T13:49:58.446Z,5.60
2019-01-15T13:52:43.440Z,5.60
2019-01-15T13:55:22.796Z,5.70
2019-01-15T13:58:09.552Z,5.60
2019-01-15T14:00:48.657Z,5.70
2019-01-15T14:03:18.913Z,5.70
2019-01-15T14:06:04.405Z,5.60
2019-01-15T14:08:49.764Z,5.60
2019-01-15T14:11:25.927Z,5.60
2019-01-15T14:14:01.669Z,5.70
2019-01-15T14:16:49.863Z,5.60
2019-01-15T14:19:32.070Z,5.60
2019-01-15T14:22:20.481Z,5.70
2019-01-15T14:24:58.410Z,5.80
2019-01-15T14:27:41.550Z,5.80
2019-01-15T14:30:14.801Z,5.80
2019-01-15T14:32:47.461Z,5.90
2019-01-15T14:35:23.724Z,5.90
2019-01-15T14:38:02.845Z,5.90
2019-01-15T14:40:49.273Z,5.90
2019-01-15T14:43:36.057Z,5.90
2019-01-15T14:46:21.406Z,5.90
2019-01-15T14:49:00.618Z,5.90
2019-01-15T14:51:30.793Z,5.90
2019-01-15T14:54:10.277Z,5.90
2019-01-15T14:56:40.455Z,5.90
2019-01-15T14:59:28.877Z,5.90
2019-01-15T15:02:17.209Z,5.90
2019-01-15T15:05:06.029Z,5.80
2019-01-15T15:07:36.685Z,5.80
2019-01-15T15:10:12.905Z,5.80
2019-01-15T15:12:45.592Z,5.80
2019-01-15T15:15:21.858Z,5.80
2019-01-15T15:17:52.048Z,5.80
2019-01-15T15:20:28.255Z,5.80
2019-01-15T15:22:58.435Z,5.80
2019-01-15T15:25:37.584Z,5.80
2019-01-15T15:28:10.828Z,5.80
2019-01-15T15:30:41.029Z,5.70
2019-01-15T15:33:13.719Z,5.70
2019-01-15T15:35:44.124Z,5.70
2019-01-15T15:38:29.348Z,5.60
2019-01-15T15:41:15.529Z,5.60
2019-01-15T15:43:46.146Z,5.60
2019-01-15T15:46:16.320Z,5.60
2019-01-15T15:49:02.668Z,5.60
2019-01-15T15:51:44.821Z,5.60
2019-01-15T15:54:17.984Z,5.50
2019-01-15T15:56:54.251Z,5.60
2019-01-15T15:59:24.445Z,5.50
2019-01-15T16:01:57.473Z,5.60
2019-01-15T16:04:27.741Z,5.50
2019-01-15T16:07:04.033Z,5.60
2019-01-15T16:09:43.241Z,5.60
2019-01-15T16:12:19.613Z,5.60
2019-01-15T16:15:08.096Z,5.60
2019-01-15T16:17:38.273Z,5.60
2019-01-15T16:20:10.381Z,5.60
2019-01-15T16:22:49.156Z,5.50
2019-01-15T16:25:25.306Z,5.50
2019-01-15T16:28:12.157Z,5.50
2019-01-15T16:30:44.901Z,5.50
2019-01-15T16:33:17.908Z,5.50
2019-01-15T16:35:48.333Z,5.50
2019-01-15T16:38:27.669Z,5.50
2019-01-15T16:41:14.092Z,5.50
2019-01-15T16:43:44.602Z,5.50
2019-01-15T16:46:26.239Z,5.50
2019-01-15T16:49:01.625Z,5.50
2019-01-15T16:51:34.560Z,5.40
2019-01-15T16:54:04.766Z,5.50
2019-01-15T16:56:40.817Z,5.50
2019-01-15T16:59:19.982Z,5.50
2019-01-15T17:02:08.373Z,5.50
2019-01-15T17:04:53.904Z,5.60
2019-01-15T17:07:32.972Z,5.60
2019-01-15T17:10:05.984Z,5.50
2019-01-15T17:12:42.177Z,5.50
2019-01-15T17:15:12.520Z,5.50
2019-01-15T17:17:45.505Z,5.50
2019-01-15T17:20:21.517Z,5.40
2019-01-15T17:23:08.015Z,5.40
2019-01-15T17:25:50.113Z,5.40
2019-01-15T17:28:35.232Z,5.40
2019-01-15T17:31:08.290Z,5.30
2019-01-15T17:33:44.437Z,5.30
2019-01-15T17:36:20.780Z,5.30
2019-01-15T17:39:09.261Z,5.30
2019-01-15T17:41:55.828Z,5.20
2019-01-15T17:44:42.561Z,5.30
2019-01-15T17:47:15.449Z,5.30
2019-01-15T17:49:51.412Z,5.30
2019-01-15T17:52:30.400Z,5.30
2019-01-15T17:55:12.568Z,5.30
2019-01-15T17:57:42.836Z,5.40
2019-01-15T18:00:31.054Z,5.40
2019-01-15T18:03:01.253Z,5.40
2019-01-15T18:05:47.800Z,5.40
2019-01-15T18:08:21.005Z,5.40
2019-01-15T18:10:54.346Z,5.40
2019-01-15T18:13:36.624Z,5.30
2019-01-15T18:16:23.433Z,5.30
2019-01-15T18:18:59.593Z,5.30
2019-01-15T18:21:39.047Z,5.30
2019-01-15T18:24:27.504Z,5.40
2019-01-15T18:27:03.621Z,5.40
2019-01-15T18:29:45.908Z,5.40
2019-01-15T18:32:24.524Z,5.40
2019-01-15T18:34:57.442Z,5.40
2019-01-15T18:37:27.612Z,5.40
2019-01-15T18:39:57.813Z,5.40
2019-01-15T18:42:44.289Z,5.40
2019-01-15T18:45:20.697Z,5.40
2019-01-15T18:47:56.880Z,5.40
2019-01-15T18:50:39.194Z,5.40
2019-01-15T18:53:27.308Z,5.40
2019-01-15T18:56:09.578Z,5.40
2019-01-15T18:58:57.889Z,5.40
2019-01-15T19:01:37.093Z,5.40
2019-01-15T19:04:23.773Z,5.40
2019-01-15T19:06:56.754Z,5.40
2019-01-15T19:09:29.515Z,5.30
2019-01-15T19:12:02.484Z,5.30
2019-01-15T19:14:35.393Z,5.30
2019-01-15T19:17:21.033Z,5.30
2019-01-15T19:19:57.069Z,5.30
2019-01-15T19:22:30.328Z,5.30
2019-01-15T19:25:16.956Z,5.30
2019-01-15T19:28:02.509Z,5.30
2019-01-15T19:30:33.066Z,5.30
2019-01-15T19:33:18.646Z,5.30
2019-01-15T19:36:04.861Z,5.20
2019-01-15T19:38:37.816Z,5.20
2019-01-15T19:41:20.025Z,5.20
2019-01-15T19:43:59.440Z,5.20
2019-01-15T19:46:35.352Z,5.10
2019-01-15T19:49:21.825Z,5.10
2019-01-15T19:51:54.905Z,5.10
2019-01-15T19:54:37.342Z,5.10
2019-01-15T19:57:16.261Z,5.10
2019-01-15T19:59:52.505Z,5.10
2019-01-15T20:02:25.356Z,5.10
2019-01-15T20:04:58.794Z,5.00
2019-01-15T20:07:38.014Z,5.00
2019-01-15T20:10:17.225Z,5.00
2019-01-15T20:12:53.162Z,5.00
2019-01-15T20:15:35.625Z,5.00
2019-01-15T20:18:22.305Z,5.00
2019-01-15T20:21:04.336Z,5.00
2019-01-15T20:23:50.725Z,5.00
2019-01-15T20:26:23.737Z,5.00
2019-01-15T20:29:03.465Z,5.00
2019-01-15T20:31:33.737Z,5.00
2019-01-15T20:34:10.155Z,4.90
2019-01-15T20:36:40.357Z,4.90
2019-01-15T20:39:16.421Z,5.00
2019-01-15T20:41:46.693Z,5.00
2019-01-15T20:44:19.956Z,4.90
2019-01-15T20:46:53.022Z,5.00
2019-01-15T20:49:32.404Z,5.00
2019-01-15T20:52:05.800Z,5.00
2019-01-15T20:54:36.035Z,5.00
2019-01-15T20:57:11.973Z,5.00
2019-01-15T20:59:47.955Z,5.00
2019-01-15T21:02:26.816Z,5.00
2019-01-15T21:05:12.018Z,5.00
2019-01-15T21:07:42.216Z,5.00
2019-01-15T21:10:31.541Z,5.00
2019-01-15T21:13:11.777Z,5.00
2019-01-15T21:15:53.961Z,5.00
2019-01-15T21:18:24.084Z,5.10
2019-01-15T21:21:12.616Z,5.10
2019-01-15T21:23:42.820Z,5.10
2019-01-15T21:26:12.993Z,5.10
2019-01-15T21:28:43.509Z,5.10
2019-01-15T21:31:14.062Z,5.10
2019-01-15T21:33:47.365Z,5.10
2019-01-15T21:36:23.781Z,5.10
2019-01-15T21:39:02.664Z,5.10
2019-01-15T21:41:35.600Z,5.10
2019-01-15T21:44:08.297Z,5.10
2019-01-15T21:46:50.604Z,5.10
2019-01-15T21:49:37.457Z,5.10
2019-01-15T21:52:23.892Z,5.00
2019-01-15T21:55:03.116Z,5.10
2019-01-15T21:57:33.293Z,5.00
2019-01-15T22:00:19.785Z,5.10
2019-01-15T22:02:50.290Z,5.10
2019-01-15T22:05:23.200Z,5.10
2019-01-15T22:07:53.310Z,5.10
2019-01-15T22:10:41.577Z,5.10
2019-01-15T22:13:24.042Z,5.10
2019-01-15T22:16:10.748Z,5.10
2019-01-15T22:18:43.953Z,5.10
2019-01-15T22:21:20.158Z,5.10
2019-01-15T22:23:50.405Z,5.10
2019-01-15T22:26:36.992Z,5.20
2019-01-15T22:29:07.168Z,5.20
2019-01-15T22:31:46.256Z,5.20
2019-01-15T22:34:25.299Z,5.20
2019-01-15T22:37:04.744Z,5.20
2019-01-15T22:39:34.912Z,5.20
2019-01-15T22:42:14.170Z,5.20
2019-01-15T22:45:00.764Z,5.20
2019-01-15T22:47:33.672Z,5.20
2019-01-15T22:50:20.393Z,5.20
2019-01-15T22:52:50.592Z,5.20
2019-01-15T22:55:23.709Z,5.20
2019-01-15T22:58:10.360Z,5.20
2019-01-15T23:00:55.735Z,5.20
2019-01-15T23:03:26.073Z,5.20
2019-01-15T23:06:12.578Z,5.20
2019-01-15T23:08:45.501Z,5.10
2019-01-15T23:11:18.721Z,5.20
2019-01-15T23:13:48.925Z,5.10
2019-01-15T23:16:19.166Z,5.10
2019-01-15T23:19:05.798Z,5.10
2019-01-15T23:21:35.969Z,5.10
2019-01-15T23:24:06.488Z,5.10
2019-01-15T23:26:42.449Z,5.10
2019-01-15T23:29:15.337Z,5.10
2019-01-15T23:31:48.864Z,5.10
2019-01-15T23:34:30.959Z,5.10
2019-01-15T23:37:03.853Z,5.10
2019-01-15T23:39:34.374Z,5.10
2019-01-15T23:42:13.932Z,5.10
2019-01-15T23:44:50.077Z,5.00
2019-01-15T23:47:35.557Z,5.00
2019-01-15T23:50:11.001Z,5.00
2019-01-15T23:52:50.040Z,5.00
2019-01-15T23:55:20.140Z,5.00
2019-01-15T23:57:53.092Z,5.00
